Time;durP1;ratioP1;P1;durP2;ratioP2;P2;SDS_P1;SDS_P2;PMS_P1;PMS_P2;Temp;Humidity;BMP_temperature;BMP_pressure;BME280_temperature;BME280_humidity;BME280_pressure;Samples;Min_cycle;Max_cycle;Signal;HPM_P1;HPM_P2
2022/05/15 00:02:04;;;;;;;11.30;5.10;;;24.00;45.40;;;;;;6284344;27;80806;-68
2022/05/15 00:05:05;;;;;;;10.52;5.55;;;24.10;45.40;;;;;;6284011;27;80141;-68
2022/05/15 00:08:05;;;;;;;12.00;4.70;;;24.10;45.50;;;;;;6284534;27;81290;-68
2022/05/15 00:11:05;;;;;;;9.25;5.22;;;24.10;45.40;;;;;;6284600;27;80419;-69
2022/05/15 00:14:06;;;;;;;9.35;4.82;;;24.00;45.40;;;;;;6278863;27;80616;-69
2022/05/15 00:17:06;;;;;;;13.43;5.65;;;24.10;45.40;;;;;;6284489;27;81346;-68
2022/05/15 00:20:07;;;;;;;9.65;4.95;;;24.10;45.20;;;;;;6282461;27;81355;-69
2022/05/15 00:23:08;;;;;;;9.10;4.75;;;24.10;45.20;;;;;;6282621;27;80371;-69
2022/05/15 00:26:08;;;;;;;9.65;5.13;;;24.20;45.20;;;;;;6284026;27;80174;-69
2022/05/15 00:29:09;;;;;;;11.30;5.45;;;24.10;45.30;;;;;;6284231;27;80570;-69
2022/05/15 00:32:10;;;;;;;11.57;5.75;;;24.10;45.40;;;;;;6284356;27;80344;-69
2022/05/15 00:35:10;;;;;;;10.35;5.80;;;24.10;45.50;;;;;;6279127;27;80260;-69
2022/05/15 00:38:11;;;;;;;13.63;5.78;;;24.10;45.50;;;;;;6283404;27;83348;-68
2022/05/15 00:41:11;;;;;;;9.18;5.00;;;24.00;45.40;;;;;;6283884;27;80662;-69
2022/05/15 00:44:12;;;;;;;9.10;5.68;;;24.00;45.40;;;;;;6283773;27;80847;-69
2022/05/15 00:47:14;;;;;;;16.60;6.50;;;24.00;45.40;;;;;;6284441;27;81593;-68
2022/05/15 00:50:14;;;;;;;9.85;5.88;;;24.00;45.20;;;;;;6262684;27;82211;-68
2022/05/15 00:53:15;;;;;;;19.70;5.85;;;23.90;45.20;;;;;;6284103;27;80153;-68
2022/05/15 00:56:16;;;;;;;12.25;5.28;;;23.90;45.20;;;;;;6283582;27;86061;-68
2022/05/15 00:59:16;;;;;;;13.05;5.70;;;23.90;45.20;;;;;;6284098;27;80298;-68
2022/05/15 01:02:17;;;;;;;10.13;5.32;;;23.90;45.20;;;;;;6284052;27;80696;-68
2022/05/15 01:05:17;;;;;;;14.25;5.93;;;23.90;45.30;;;;;;6283536;27;81732;-68
2022/05/15 01:08:18;;;;;;;14.55;6.25;;;23.90;45.30;;;;;;6282490;27;82922;-69
2022/05/15 01:11:20;;;;;;;10.98;5.60;;;23.90;45.20;;;;;;6281863;27;82863;-70
2022/05/15 01:14:21;;;;;;;12.45;6.25;;;23.90;45.30;;;;;;6281758;27;82727;-69
2022/05/15 01:17:22;;;;;;;14.23;6.45;;;23.90;45.20;;;;;;6274751;27;83402;-69
2022/05/15 01:20:23;;;;;;;10.07;5.40;;;23.90;45.00;;;;;;6282023;27;83397;-67
2022/05/15 01:23:23;;;;;;;13.80;5.53;;;23.90;45.00;;;;;;6283375;27;80805;-69
2022/05/15 01:26:24;;;;;;;11.75;5.07;;;23.90;44.80;;;;;;6281202;27;81762;-69
2022/05/15 01:29:25;;;;;;;10.63;5.07;;;23.90;44.80;;;;;;6281793;27;80431;-69
2022/05/15 01:32:25;;;;;;;7.40;4.68;;;23.90;44.80;;;;;;6264290;27;81487;-69
2022/05/15 01:35:26;;;;;;;8.75;4.70;;;23.80;44.90;;;;;;6280070;27;83214;-68
2022/05/15 01:38:26;;;;;;;7.55;4.95;;;23.80;44.90;;;;;;6281661;27;81724;-69
2022/05/15 01:41:27;;;;;;;10.05;5.70;;;23.90;45.00;;;;;;6282913;27;80719;-68
2022/05/15 01:44:27;;;;;;;10.75;5.72;;;23.80;45.10;;;;;;6283168;27;80400;-69
2022/05/15 01:47:29;;;;;;;9.93;5.20;;;23.90;45.10;;;;;;6281612;27;81957;-68
2022/05/15 01:50:29;;;;;;;9.63;4.82;;;23.90;45.10;;;;;;6282857;27;80332;-69
2022/05/15 01:53:30;;;;;;;8.07;5.53;;;23.90;45.00;;;;;;6274361;27;82606;-68
2022/05/15 01:56:30;;;;;;;12.05;5.53;;;23.90;45.10;;;;;;6285737;27;81655;-68
2022/05/15 01:59:31;;;;;;;10.00;5.15;;;23.80;45.10;;;;;;6285883;27;83523;-69
2022/05/15 02:02:31;;;;;;;10.20;5.53;;;23.90;45.10;;;;;;6285493;27;83198;-68
2022/05/15 02:05:32;;;;;;;13.75;5.47;;;23.80;45.10;;;;;;6285717;27;83147;-68
2022/05/15 02:08:33;;;;;;;9.88;5.05;;;23.90;45.20;;;;;;6285848;27;83077;-69
2022/05/15 02:11:34;;;;;;;16.90;5.55;;;23.90;45.20;;;;;;6285373;27;83381;-69
2022/05/15 02:14:35;;;;;;;11.65;5.40;;;23.90;45.20;;;;;;6274101;27;81506;-69
2022/05/15 02:17:36;;;;;;;8.20;5.28;;;23.90;45.20;;;;;;6285202;27;82348;-67
2022/05/15 02:20:37;;;;;;;12.75;4.90;;;24.00;45.30;;;;;;6285471;27;81548;-66
2022/05/15 02:23:37;;;;;;;11.55;5.47;;;24.00;45.40;;;;;;6285536;27;81651;-67
2022/05/15 02:26:38;;;;;;;10.63;5.60;;;24.00;45.20;;;;;;6284181;27;83691;-67
2022/05/15 02:29:39;;;;;;;11.55;5.50;;;24.00;45.30;;;;;;6275142;27;81845;-67
2022/05/15 02:32:39;;;;;;;9.77;5.82;;;23.90;45.20;;;;;;6285017;27;80264;-67
2022/05/15 02:35:40;;;;;;;15.48;5.07;;;24.00;45.30;;;;;;6284806;27;82940;-67
2022/05/15 02:38:41;;;;;;;9.48;5.95;;;24.00;45.30;;;;;;6285182;27;81591;-67
2022/05/15 02:41:42;;;;;;;14.05;5.90;;;24.00;45.50;;;;;;6284164;27;83181;-67
2022/05/15 02:44:43;;;;;;;9.80;5.53;;;23.90;45.40;;;;;;6284618;27;82971;-67
2022/05/15 02:47:44;;;;;;;13.13;6.40;;;23.90;45.40;;;;;;6284572;27;83237;-67
2022/05/15 02:51:03;;;;;;;8.73;5.45;;;23.90;45.40;;;;;;6284866;27;81630;-68
2022/05/15 02:54:05;;;;;;;16.10;6.38;;;23.90;45.40;;;;;;6284766;27;82685;-67
2022/05/15 02:57:05;;;;;;;12.70;6.43;;;23.90;45.40;;;;;;6284278;27;80541;-67
2022/05/15 03:00:06;;;;;;;13.45;6.05;;;23.90;45.50;;;;;;6284692;27;83221;-67
2022/05/15 03:03:09;;;;;;;11.35;6.05;;;23.90;45.50;;;;;;6284791;27;83420;-67
2022/05/15 03:06:11;;;;;;;14.68;6.22;;;23.90;45.60;;;;;;6283814;27;83082;-68
2022/05/15 03:09:12;;;;;;;13.70;6.53;;;23.80;45.50;;;;;;6284160;27;80040;-67
2022/05/15 03:12:13;;;;;;;11.55;6.45;;;23.80;45.50;;;;;;6286517;27;80016;-67
2022/05/15 03:15:15;;;;;;;10.75;5.80;;;23.90;45.60;;;;;;6285308;27;80426;-67
2022/05/15 03:18:16;;;;;;;8.75;6.20;;;23.80;45.60;;;;;;6284529;27;83202;-68
2022/05/15 03:21:29;;;;;;;13.88;6.22;;;23.80;45.60;;;;;;6284782;27;81788;-67
2022/05/15 03:24:30;;;;;;;12.15;6.82;;;23.80;45.70;;;;;;6269495;27;83107;-68
2022/05/15 03:27:31;;;;;;;12.40;6.47;;;23.80;45.60;;;;;;6284034;27;82422;-68
2022/05/15 03:30:31;;;;;;;13.88;6.47;;;23.80;46.30;;;;;;6278726;27;83433;-68
2022/05/15 03:33:32;;;;;;;15.10;7.30;;;23.80;45.70;;;;;;6284381;27;80867;-68
2022/05/15 03:36:33;;;;;;;11.82;6.57;;;23.80;45.90;;;;;;6283945;27;81913;-67
2022/05/15 03:39:33;;;;;;;15.43;6.93;;;23.80;45.80;;;;;;6283731;27;83634;-68
2022/05/15 03:42:34;;;;;;;12.13;7.05;;;23.80;45.80;;;;;;6283492;27;81533;-68
2022/05/15 03:45:34;;;;;;;12.65;7.20;;;23.80;46.30;;;;;;6282671;27;80318;-68
2022/05/15 03:48:35;;;;;;;12.82;6.85;;;23.80;45.80;;;;;;6276816;27;83168;-68
2022/05/15 03:51:36;;;;;;;12.00;6.70;;;23.80;45.90;;;;;;6276299;27;81387;-68
2022/05/15 03:54:37;;;;;;;12.43;6.32;;;23.90;46.10;;;;;;6283703;27;83155;-67
2022/05/15 03:57:37;;;;;;;8.98;5.35;;;24.00;45.80;;;;;;6283826;27;83236;-67
2022/05/15 04:00:38;;;;;;;12.10;5.80;;;24.10;45.60;;;;;;6283422;27;81346;-68
2022/05/15 04:03:39;;;;;;;11.20;5.55;;;24.10;45.30;;;;;;6275097;27;82593;-68
2022/05/15 04:06:39;;;;;;;7.75;5.45;;;24.20;45.20;;;;;;6270512;27;80182;-68
2022/05/15 04:09:43;;;;;;;12.05;6.32;;;24.30;45.10;;;;;;6279860;27;83492;-68
2022/05/15 04:12:44;;;;;;;10.88;5.78;;;24.30;45.10;;;;;;6282548;27;83183;-67
2022/05/15 04:15:45;;;;;;;9.18;5.60;;;24.30;44.90;;;;;;6279794;27;80418;-68
2022/05/15 04:18:45;;;;;;;12.95;6.28;;;24.40;44.90;;;;;;6260754;27;82815;-67
2022/05/15 04:21:46;;;;;;;10.38;5.50;;;24.40;44.90;;;;;;6264046;27;82206;-67
2022/05/15 04:24:46;;;;;;;9.23;5.57;;;24.40;44.90;;;;;;6284198;27;80306;-68
2022/05/15 04:27:47;;;;;;;9.13;5.97;;;24.40;44.80;;;;;;6284642;27;81128;-68
2022/05/15 04:30:48;;;;;;;6.60;4.68;;;24.50;44.80;;;;;;6282781;27;83433;-69
2022/05/15 04:33:49;;;;;;;10.82;5.68;;;24.50;44.70;;;;;;6276226;27;80669;-68
2022/05/15 04:36:49;;;;;;;12.40;6.97;;;24.60;44.80;;;;;;6282901;27;80922;-68
2022/05/15 04:39:50;;;;;;;8.90;5.47;;;24.60;44.70;;;;;;6284045;27;80576;-70
2022/05/15 04:42:50;;;;;;;8.82;5.50;;;24.60;44.70;;;;;;6283633;27;81033;-68
2022/05/15 04:45:51;;;;;;;10.27;5.20;;;24.60;44.70;;;;;;6283832;27;80479;-68
2022/05/15 04:48:51;;;;;;;7.55;5.05;;;24.60;44.70;;;;;;6275353;27;80309;-74
2022/05/15 04:51:52;;;;;;;9.82;5.78;;;24.60;45.10;;;;;;6281615;27;82030;-67
2022/05/15 04:54:52;;;;;;;11.55;5.38;;;24.70;45.30;;;;;;6284194;27;80913;-65
2022/05/15 04:57:53;;;;;;;8.23;5.00;;;24.70;45.20;;;;;;6279141;27;80660;-65
2022/05/15 05:00:53;;;;;;;7.20;5.07;;;24.70;45.50;;;;;;6276832;27;80684;-63
2022/05/15 05:03:54;;;;;;;14.05;5.43;;;24.80;45.60;;;;;;6283713;27;80478;-67
2022/05/15 05:06:54;;;;;;;13.48;5.15;;;24.80;45.80;;;;;;6281996;27;82703;-69
2022/05/15 05:09:55;;;;;;;14.90;6.30;;;24.80;46.30;;;;;;6264835;27;82767;-71
2022/05/15 05:12:55;;;;;;;22.05;5.82;;;24.80;46.00;;;;;;6266289;27;80523;-68
2022/05/15 05:15:56;;;;;;;11.23;5.82;;;24.80;46.40;;;;;;6274374;27;80921;-69
2022/05/15 05:18:56;;;;;;;14.10;5.70;;;24.90;46.30;;;;;;6283236;27;80570;-68
2022/05/15 05:21:57;;;;;;;9.05;6.03;;;24.90;46.60;;;;;;6281698;27;81646;-70
2022/05/15 05:24:57;;;;;;;8.85;5.38;;;24.90;47.10;;;;;;6284044;27;81304;-71
2022/05/15 05:27:58;;;;;;;11.25;6.15;;;25.00;47.00;;;;;;6281438;27;82101;-67
2022/05/15 05:30:58;;;;;;;10.52;5.07;;;25.00;47.10;;;;;;6283876;27;80202;-70
2022/05/15 05:33:59;;;;;;;8.50;5.35;;;25.10;47.40;;;;;;6283231;27;80427;-69
2022/05/15 05:36:59;;;;;;;9.02;5.68;;;25.10;47.30;;;;;;6278676;27;81655;-71
2022/05/15 05:40:00;;;;;;;14.70;6.03;;;25.10;47.60;;;;;;6276121;27;83429;-69
2022/05/15 05:43:01;;;;;;;8.63;4.97;;;25.10;47.70;;;;;;6283650;27;80486;-69
2022/05/15 05:46:01;;;;;;;14.23;5.15;;;25.10;47.90;;;;;;6276773;27;80401;-69
2022/05/15 05:49:02;;;;;;;11.55;5.40;;;25.20;47.90;;;;;;6283650;27;80323;-70
2022/05/15 05:52:02;;;;;;;9.05;5.03;;;25.10;47.90;;;;;;6283615;27;81030;-70
2022/05/15 05:55:03;;;;;;;9.23;5.30;;;25.10;48.50;;;;;;6283664;27;80243;-69
2022/05/15 05:58:03;;;;;;;11.48;5.68;;;25.10;49.70;;;;;;6283457;27;80343;-72
2022/05/15 06:01:04;;;;;;;12.95;4.90;;;25.20;49.50;;;;;;6283244;27;80832;-68
2022/05/15 06:07:24;;;;;;;9.07;5.32;;;25.20;50.70;;;;;;6282921;27;80288;-68
2022/05/15 06:10:24;;;;;;;9.93;5.60;;;25.20;50.90;;;;;;6282943;27;80862;-68
2022/05/15 06:13:25;;;;;;;13.18;5.75;;;25.30;50.70;;;;;;6282776;27;80680;-68
2022/05/15 06:16:26;;;;;;;10.25;5.15;;;25.30;50.90;;;;;;6282212;27;80355;-68
2022/05/15 06:19:26;;;;;;;11.52;5.07;;;25.30;51.80;;;;;;6282400;27;80935;-66
2022/05/15 06:22:27;;;;;;;10.80;5.75;;;25.30;51.10;;;;;;6276388;27;80526;-67
2022/05/15 06:25:28;;;;;;;10.68;5.68;;;25.30;51.00;;;;;;6282018;27;81507;-66
2022/05/15 06:28:29;;;;;;;11.77;4.90;;;25.40;51.00;;;;;;6269638;27;81302;-69
2022/05/15 06:31:29;;;;;;;13.20;5.07;;;25.40;50.90;;;;;;6260327;27;80797;-69
2022/05/15 06:34:30;;;;;;;8.52;4.63;;;25.40;50.90;;;;;;6259936;27;80409;-67
2022/05/15 06:37:30;;;;;;;9.05;5.05;;;25.50;50.70;;;;;;6259245;27;80516;-70
2022/05/15 06:40:31;;;;;;;9.35;4.35;;;25.40;50.70;;;;;;6262741;27;81821;-70
2022/05/15 06:43:31;;;;;;;8.40;4.65;;;25.50;50.40;;;;;;6264772;27;80432;-70
2022/05/15 06:46:32;;;;;;;9.88;4.60;;;25.50;50.30;;;;;;6275308;27;80778;-68
2022/05/15 06:49:32;;;;;;;7.22;4.40;;;25.50;50.00;;;;;;6285838;27;81797;-69
2022/05/15 06:52:33;;;;;;;5.78;4.18;;;25.60;49.70;;;;;;6284492;27;81478;-68
2022/05/15 06:55:34;;;;;;;7.22;4.72;;;25.60;49.50;;;;;;6282985;27;81478;-68
2022/05/15 06:58:35;;;;;;;8.13;4.93;;;25.60;49.30;;;;;;6285203;27;80249;-68
2022/05/15 07:01:35;;;;;;;17.45;6.78;;;25.50;48.50;;;;;;6285832;27;80246;-66
2022/05/15 07:04:36;;;;;;;13.23;5.40;;;25.50;48.00;;;;;;6284435;27;80564;-66
2022/05/15 07:07:38;;;;;;;12.85;5.43;;;25.50;48.50;;;;;;6285459;27;81326;-67
2022/05/15 07:10:38;;;;;;;12.57;6.32;;;25.50;48.80;;;;;;6275248;27;81552;-66
2022/05/15 07:13:39;;;;;;;11.15;6.03;;;25.50;48.30;;;;;;6280924;27;80601;-67
2022/05/15 07:16:40;;;;;;;12.85;5.45;;;25.50;47.20;;;;;;6285881;27;80211;-68
2022/05/15 07:19:41;;;;;;;15.57;7.38;;;25.50;47.10;;;;;;6286080;27;80260;-67
2022/05/15 07:22:41;;;;;;;11.10;6.25;;;25.50;46.40;;;;;;6281292;27;80955;-67
2022/05/15 07:25:42;;;;;;;15.70;6.90;;;25.50;45.80;;;;;;6263403;27;80673;-66
2022/05/15 07:28:45;;;;;;;15.00;6.65;;;25.50;45.10;;;;;;6270555;27;80490;-67
2022/05/15 07:31:47;;;;;;;17.40;7.18;;;25.30;45.40;;;;;;6285323;27;80553;-68
2022/05/15 07:34:47;;;;;;;15.82;7.15;;;25.40;45.70;;;;;;6283019;27;80426;-67
2022/05/15 07:37:48;;;;;;;13.88;7.03;;;25.40;45.40;;;;;;6273217;27;80374;-65
2022/05/15 07:40:48;;;;;;;16.08;6.32;;;25.40;44.90;;;;;;6285481;27;80649;-68
2022/05/15 07:43:49;;;;;;;17.23;6.10;;;25.30;45.00;;;;;;6281858;27;80817;-68
2022/05/15 07:46:49;;;;;;;15.32;5.55;;;25.30;44.70;;;;;;6271889;27;81285;-69
2022/05/15 07:49:50;;;;;;;12.63;4.82;;;25.30;44.10;;;;;;6284632;27;80280;-68
2022/05/15 07:52:50;;;;;;;15.07;4.70;;;25.20;43.60;;;;;;6284358;27;80282;-67
2022/05/15 07:55:51;;;;;;;12.27;5.00;;;25.10;43.50;;;;;;6283642;27;81428;-67
2022/05/15 07:58:52;;;;;;;11.48;4.68;;;25.00;43.50;;;;;;6277174;27;80682;-74
2022/05/15 08:01:55;;;;;;;13.00;5.30;;;25.20;43.30;;;;;;6282062;27;80530;-72
2022/05/15 08:08:15;;;;;;;14.18;4.53;;;25.20;43.20;;;;;;6274635;27;82061;-66
2022/05/15 08:11:15;;;;;;;17.60;5.55;;;25.20;42.80;;;;;;6282668;27;80280;-68
2022/05/15 08:14:17;;;;;;;17.75;5.47;;;24.90;42.80;;;;;;6276184;27;80726;-68
2022/05/15 08:17:18;;;;;;;17.98;4.90;;;24.90;43.40;;;;;;6285071;27;80355;-68
2022/05/15 08:23:37;;;;;;;15.75;4.75;;;24.90;43.60;;;;;;6284428;27;84419;-68
2022/05/15 08:26:38;;;;;;;12.02;3.90;;;25.00;43.10;;;;;;6283805;27;80126;-68
2022/05/15 08:29:38;;;;;;;17.35;5.38;;;25.10;42.20;;;;;;6285024;27;80746;-68
2022/05/15 08:32:39;;;;;;;10.30;3.63;;;25.00;41.90;;;;;;6280760;27;80407;-66
2022/05/15 08:35:39;;;;;;;10.70;3.67;;;25.00;42.40;;;;;;6264749;27;80561;-79
2022/05/15 08:38:40;;;;;;;8.80;3.38;;;25.10;42.60;;;;;;6267734;27;80886;-73
2022/05/15 08:41:41;;;;;;;11.18;3.42;;;25.10;42.50;;;;;;6267901;27;81312;-67
2022/05/15 08:44:41;;;;;;;20.90;4.13;;;25.20;42.30;;;;;;6265557;27;80322;-67
2022/05/15 08:47:42;;;;;;;10.40;3.35;;;25.20;41.90;;;;;;6278839;27;80296;-67
2022/05/15 08:50:43;;;;;;;11.55;3.70;;;25.10;41.90;;;;;;6281299;27;80418;-66
2022/05/15 08:53:43;;;;;;;11.70;4.55;;;25.20;42.10;;;;;;6265939;27;80987;-67
2022/05/15 08:56:44;;;;;;;14.00;4.25;;;25.00;42.00;;;;;;6264244;27;80817;-68
2022/05/15 08:59:44;;;;;;;12.35;4.10;;;25.00;41.90;;;;;;6271997;27;80769;-76
2022/05/15 09:02:45;;;;;;;12.35;3.72;;;25.10;41.90;;;;;;6258327;27;80641;-74
2022/05/15 09:05:45;;;;;;;18.40;5.32;;;25.10;42.00;;;;;;6280758;27;80776;-68
2022/05/15 09:08:46;;;;;;;13.73;4.68;;;25.10;41.90;;;;;;6284023;27;80445;-70
2022/05/15 09:11:46;;;;;;;15.38;4.60;;;25.10;41.80;;;;;;6281693;27;80545;-73
2022/05/15 09:14:47;;;;;;;15.70;4.97;;;25.00;42.00;;;;;;6275900;27;80855;-69
2022/05/15 09:17:48;;;;;;;10.60;4.47;;;25.10;41.80;;;;;;6282573;27;80531;-69
2022/05/15 09:20:48;;;;;;;10.65;4.43;;;25.10;41.40;;;;;;6268783;27;80562;-71
2022/05/15 09:23:49;;;;;;;17.88;4.43;;;25.10;41.50;;;;;;6268973;27;80372;-70
2022/05/15 09:26:49;;;;;;;6.75;3.92;;;25.20;41.10;;;;;;6284504;27;81614;-70
2022/05/15 09:29:50;;;;;;;10.73;4.20;;;25.20;41.00;;;;;;6285053;27;80361;-66
2022/05/15 09:32:50;;;;;;;10.50;3.53;;;25.20;41.10;;;;;;6272139;27;80790;-67
2022/05/15 09:35:51;;;;;;;8.85;3.72;;;25.10;41.00;;;;;;6270205;27;80346;-69
2022/05/15 09:38:52;;;;;;;12.02;3.42;;;25.10;40.20;;;;;;6282640;27;80345;-69
2022/05/15 09:45:11;;;;;;;10.98;3.90;;;25.10;40.20;;;;;;6282587;27;80375;-68
2022/05/15 09:48:12;;;;;;;14.88;4.15;;;25.00;40.40;;;;;;6279970;27;81701;-68
2022/05/15 09:51:12;;;;;;;11.48;3.08;;;25.10;40.60;;;;;;6282221;27;82024;-70
2022/05/15 09:54:13;;;;;;;9.27;3.47;;;25.00;40.60;;;;;;6284110;27;80016;-67
2022/05/15 09:57:13;;;;;;;12.77;3.63;;;25.00;39.50;;;;;;6282331;27;80904;-68
2022/05/15 10:00:14;;;;;;;8.52;3.22;;;25.00;39.40;;;;;;6283762;27;87502;-69
2022/05/15 10:03:14;;;;;;;7.72;2.95;;;24.90;39.20;;;;;;6278981;27;80327;-68
2022/05/15 10:06:15;;;;;;;6.68;3.15;;;25.00;39.50;;;;;;6283782;27;80421;-68
2022/05/15 10:09:15;;;;;;;8.63;2.90;;;25.20;39.90;;;;;;6268760;27;80563;-71
2022/05/15 10:12:16;;;;;;;10.93;3.00;;;25.30;40.40;;;;;;6278754;27;80226;-69
2022/05/15 10:15:17;;;;;;;11.43;4.07;;;25.30;40.50;;;;;;6284704;27;80363;-69
2022/05/15 10:18:18;;;;;;;7.45;3.47;;;25.40;40.50;;;;;;6284372;27;80324;-68
2022/05/15 10:21:18;;;;;;;15.23;3.80;;;25.50;40.80;;;;;;6287783;27;80370;-69
2022/05/15 10:24:18;;;;;;;12.18;3.50;;;25.50;41.20;;;;;;6268670;27;80341;-71
2022/05/15 10:27:19;;;;;;;7.93;3.38;;;25.50;41.20;;;;;;6279790;27;80252;-69
2022/05/15 10:30:21;;;;;;;15.30;3.30;;;25.50;41.80;;;;;;6287917;27;81073;-73
2022/05/15 10:33:22;;;;;;;14.80;3.45;;;25.60;42.50;;;;;;6287980;27;80855;-73
2022/05/15 10:36:23;;;;;;;6.32;2.90;;;25.60;43.10;;;;;;6280084;27;81151;-69
2022/05/15 10:39:24;;;;;;;10.32;3.13;;;25.70;42.70;;;;;;6263284;27;80324;-69
2022/05/15 10:42:25;;;;;;;6.85;2.95;;;25.60;42.00;;;;;;6275755;27;81050;-69
2022/05/15 10:45:25;;;;;;;7.50;3.35;;;25.70;42.50;;;;;;6268897;27;81582;-70
2022/05/15 10:48:26;;;;;;;14.95;3.30;;;25.70;41.30;;;;;;6287477;27;80505;-68
2022/05/15 10:51:27;;;;;;;14.48;3.00;;;25.70;42.00;;;;;;6286911;27;80367;-71
2022/05/15 10:57:46;;;;;;;7.30;2.78;;;25.80;43.90;;;;;;6286997;27;81488;-66
2022/05/15 11:00:47;;;;;;;5.45;2.90;;;25.80;44.10;;;;;;6281566;27;81716;-65
2022/05/15 11:03:48;;;;;;;7.32;3.35;;;25.90;44.50;;;;;;6269295;27;80966;-72
2022/05/15 11:06:49;;;;;;;6.47;3.30;;;25.90;43.70;;;;;;6264273;27;80507;-66
2022/05/15 11:09:49;;;;;;;6.00;2.58;;;25.90;44.70;;;;;;6265391;27;80210;-67
2022/05/15 11:12:50;;;;;;;14.05;3.17;;;25.90;45.20;;;;;;6270026;27;80259;-66
2022/05/15 11:15:51;;;;;;;7.55;2.65;;;25.90;44.50;;;;;;6271860;27;80593;-62
2022/05/15 11:18:52;;;;;;;10.45;2.70;;;25.90;45.10;;;;;;6281381;27;81467;-65
2022/05/15 11:21:52;;;;;;;8.30;3.20;;;25.90;44.90;;;;;;6286606;27;80751;-65
2022/05/15 11:24:53;;;;;;;9.43;3.17;;;25.90;45.90;;;;;;6279526;27;80637;-66
2022/05/15 11:27:57;;;;;;;8.63;3.25;;;25.80;46.40;;;;;;6263153;27;80380;-65
2022/05/15 11:30:57;;;;;;;9.95;3.15;;;25.90;46.30;;;;;;6271556;27;80625;-65
2022/05/15 11:33:58;;;;;;;8.27;3.35;;;25.90;46.00;;;;;;6270711;27;80513;-65
2022/05/15 11:36:58;;;;;;;10.57;3.67;;;25.90;45.10;;;;;;6270939;27;80454;-63
2022/05/15 11:39:59;;;;;;;9.82;4.18;;;25.90;45.60;;;;;;6263133;27;81404;-66
2022/05/15 11:42:59;;;;;;;7.70;3.17;;;25.90;47.10;;;;;;6270917;27;80389;-62
2022/05/15 11:46:00;;;;;;;5.30;2.97;;;25.90;45.10;;;;;;6266140;27;80365;-64
2022/05/15 11:49:01;;;;;;;14.40;3.40;;;25.90;44.20;;;;;;6280749;27;80579;-65
2022/05/15 11:52:01;;;;;;;6.85;2.70;;;25.90;42.30;;;;;;6284722;27;80355;-65
2022/05/15 11:55:02;;;;;;;6.63;3.20;;;25.90;42.60;;;;;;6286001;27;80416;-67
2022/05/15 11:58:02;;;;;;;8.65;2.65;;;25.90;42.80;;;;;;6285802;27;80686;-69
2022/05/15 12:01:03;;;;;;;11.57;3.35;;;25.90;42.40;;;;;;6283034;27;80353;-66
2022/05/15 12:04:03;;;;;;;5.38;2.67;;;25.90;42.30;;;;;;6285464;27;80967;-66
2022/05/15 12:07:04;;;;;;;8.02;2.80;;;25.80;39.30;;;;;;6283750;27;80128;-71
2022/05/15 12:10:05;;;;;;;5.25;2.90;;;25.80;40.00;;;;;;6285969;27;81504;-73
2022/05/15 12:13:06;;;;;;;7.22;2.60;;;25.90;41.20;;;;;;6285335;27;80724;-70
2022/05/15 12:16:06;;;;;;;9.43;2.90;;;25.90;42.40;;;;;;6284340;27;82673;-62
2022/05/15 12:19:07;;;;;;;7.53;3.15;;;25.80;41.40;;;;;;6284875;27;80283;-63
2022/05/15 12:22:07;;;;;;;7.55;3.20;;;25.80;42.00;;;;;;6284974;27;80593;-63
2022/05/15 12:25:08;;;;;;;7.43;3.13;;;25.70;40.20;;;;;;6284878;27;80390;-66
2022/05/15 12:31:28;;;;;;;3.38;2.35;;;25.70;41.90;;;;;;6282386;27;81919;-67
2022/05/15 12:34:28;;;;;;;3.53;2.72;;;25.70;42.00;;;;;;6278696;27;81227;-66
2022/05/15 12:37:29;;;;;;;8.73;2.90;;;25.80;41.40;;;;;;6283555;27;81272;-65
2022/05/15 12:40:31;;;;;;;8.65;3.35;;;25.80;41.20;;;;;;6269374;27;80128;-65
2022/05/15 12:43:31;;;;;;;8.02;3.35;;;25.80;39.60;;;;;;6268138;27;80736;-64
2022/05/15 12:46:32;;;;;;;7.18;2.70;;;25.80;39.40;;;;;;6267783;27;80731;-64
2022/05/15 12:49:33;;;;;;;9.82;3.13;;;25.80;39.60;;;;;;6266757;27;80421;-64
2022/05/15 12:52:33;;;;;;;8.38;2.92;;;25.80;39.50;;;;;;6263091;27;80312;-64
2022/05/15 12:55:34;;;;;;;6.43;2.90;;;25.80;40.20;;;;;;6271680;27;81135;-65
2022/05/15 12:58:34;;;;;;;7.57;2.95;;;25.80;39.40;;;;;;6271392;27;80394;-64
2022/05/15 13:01:35;;;;;;;10.75;3.08;;;25.80;39.40;;;;;;6264368;27;80867;-68
2022/05/15 13:04:36;;;;;;;7.07;3.03;;;25.70;39.40;;;;;;6284693;27;82176;-64
2022/05/15 13:07:36;;;;;;;12.18;2.60;;;25.80;39.40;;;;;;6284427;27;80620;-65
2022/05/15 13:10:37;;;;;;;9.85;2.38;;;25.80;39.60;;;;;;6283785;27;80835;-67
2022/05/15 13:13:38;;;;;;;5.47;2.72;;;25.80;40.20;;;;;;6272579;27;81471;-66
2022/05/15 13:16:39;;;;;;;7.85;2.70;;;25.80;39.90;;;;;;6258986;27;80485;-66
2022/05/15 13:19:40;;;;;;;6.15;2.95;;;25.80;40.10;;;;;;6275400;27;80425;-66
2022/05/15 13:22:40;;;;;;;7.65;2.28;;;25.90;39.90;;;;;;6276345;27;80480;-68
2022/05/15 13:25:41;;;;;;;6.22;2.88;;;25.90;39.90;;;;;;6282098;27;82883;-74
2022/05/15 13:28:41;;;;;;;5.55;2.42;;;25.90;39.90;;;;;;6276364;27;80940;-71
2022/05/15 13:31:42;;;;;;;4.60;2.65;;;25.90;39.80;;;;;;6284728;27;80608;-78
2022/05/15 13:34:45;;;;;;;8.60;2.63;;;25.90;40.00;;;;;;6277335;27;81047;-75
2022/05/15 13:37:46;;;;;;;12.48;2.63;;;25.90;40.00;;;;;;6284780;27;80825;-76
2022/05/15 13:44:06;;;;;;;9.13;3.05;;;25.90;40.00;;;;;;6265371;27;80813;-68
2022/05/15 13:47:06;;;;;;;7.80;2.50;;;26.00;40.00;;;;;;6284155;27;80321;-65
2022/05/15 13:50:07;;;;;;;8.18;1.83;;;26.00;40.20;;;;;;6285901;27;80445;-67
2022/05/15 13:53:08;;;;;;;6.57;2.40;;;26.00;40.10;;;;;;6288074;27;80752;-69
2022/05/15 13:56:08;;;;;;;10.57;2.92;;;26.00;40.00;;;;;;6287681;27;80527;-66
2022/05/15 13:59:09;;;;;;;5.20;2.30;;;26.00;40.20;;;;;;6286897;27;80508;-68
2022/05/15 14:02:09;;;;;;;10.68;2.60;;;26.00;40.70;;;;;;6282381;27;80390;-70
2022/05/15 14:05:10;;;;;;;7.88;2.35;;;26.00;40.90;;;;;;6282825;27;81479;-69
2022/05/15 14:08:10;;;;;;;3.55;2.22;;;26.00;40.90;;;;;;6269044;27;81772;-69
2022/05/15 14:11:12;;;;;;;7.32;2.80;;;26.00;41.40;;;;;;6283566;27;81945;-70
2022/05/15 14:14:12;;;;;;;9.52;2.72;;;26.00;41.80;;;;;;6282453;27;80441;-66
2022/05/15 14:17:13;;;;;;;8.10;2.72;;;26.10;42.10;;;;;;6287851;27;79903;-68
2022/05/15 14:20:13;;;;;;;7.53;3.20;;;26.00;42.30;;;;;;6270652;27;81409;-65
2022/05/15 14:23:14;;;;;;;4.28;2.78;;;26.00;42.10;;;;;;6273167;27;81349;-68
2022/05/15 14:26:15;;;;;;;9.00;2.97;;;26.00;42.30;;;;;;6284187;27;80573;-66
2022/05/15 14:29:15;;;;;;;7.80;3.00;;;26.10;43.00;;;;;;6278152;27;80501;-67
2022/05/15 14:32:16;;;;;;;8.30;2.75;;;26.10;43.30;;;;;;6274096;27;80398;-67
2022/05/15 14:35:18;;;;;;;5.53;2.30;;;26.10;43.20;;;;;;6279359;27;81416;-71
2022/05/15 14:38:19;;;;;;;8.77;3.22;;;26.10;43.30;;;;;;6283315;27;80347;-68
2022/05/15 14:41:19;;;;;;;7.70;2.75;;;26.10;43.60;;;;;;6284354;27;81875;-66
2022/05/15 14:44:20;;;;;;;5.75;2.55;;;26.10;43.80;;;;;;6286821;27;80464;-67
2022/05/15 14:47:21;;;;;;;5.15;2.33;;;26.10;44.30;;;;;;6277039;27;84995;-67
2022/05/15 14:50:21;;;;;;;6.28;2.30;;;26.10;44.60;;;;;;6267405;27;80753;-67
2022/05/15 14:53:22;;;;;;;5.70;2.17;;;26.10;44.80;;;;;;6275421;27;80450;-66
2022/05/15 14:56:24;;;;;;;4.80;2.17;;;26.10;45.00;;;;;;6270217;27;80921;-65
2022/05/15 14:59:24;;;;;;;3.25;2.22;;;26.10;44.60;;;;;;6270961;27;81104;-68
2022/05/15 15:02:25;;;;;;;7.28;2.28;;;26.20;44.30;;;;;;6260401;27;80096;-67
2022/05/15 15:05:25;;;;;;;2.58;2.05;;;26.10;45.30;;;;;;6281411;27;80532;-68
2022/05/15 15:08:26;;;;;;;3.72;2.15;;;26.10;45.00;;;;;;6286750;27;82435;-74
2022/05/15 15:11:26;;;;;;;7.55;2.58;;;26.10;45.30;;;;;;6286796;27;81649;-66
2022/05/15 15:14:27;;;;;;;7.18;2.63;;;26.10;41.20;;;;;;6284456;27;81741;-67
2022/05/15 15:17:27;;;;;;;9.57;4.00;;;26.00;38.10;;;;;;6285965;27;80777;-67
2022/05/15 15:20:28;;;;;;;3.45;2.55;;;25.90;37.90;;;;;;6286345;27;81383;-67
2022/05/15 15:23:28;;;;;;;7.60;3.10;;;25.90;39.60;;;;;;6274254;27;80369;-67
2022/05/15 15:26:29;;;;;;;8.60;3.25;;;25.90;40.50;;;;;;6285310;27;82153;-67
2022/05/15 15:29:30;;;;;;;9.50;4.30;;;25.90;40.80;;;;;;6284139;27;82030;-68
2022/05/15 15:32:30;;;;;;;10.82;3.55;;;25.90;42.20;;;;;;6278482;27;83257;-68
2022/05/15 15:35:31;;;;;;;8.73;3.00;;;26.00;43.20;;;;;;6284159;27;80422;-68
2022/05/15 15:38:31;;;;;;;7.80;3.13;;;26.00;43.40;;;;;;6286365;27;80979;-68
2022/05/15 15:41:32;;;;;;;8.02;2.95;;;26.00;43.60;;;;;;6286010;27;80572;-68
2022/05/15 15:44:33;;;;;;;4.75;2.50;;;26.00;43.70;;;;;;6285935;27;80731;-67
2022/05/15 15:47:33;;;;;;;10.40;2.55;;;26.00;44.00;;;;;;6279704;27;80500;-72
2022/05/15 15:50:35;;;;;;;8.73;2.95;;;26.00;44.10;;;;;;6285241;27;80818;-67
2022/05/15 15:53:35;;;;;;;8.98;2.75;;;26.00;43.80;;;;;;6285856;27;81003;-65
2022/05/15 15:56:36;;;;;;;6.78;2.95;;;26.00;43.90;;;;;;6285508;27;80520;-65